PTAO2: Poteau River, Poteau, OK

Data processed at Tue May 21 2019 22:10


All information presented herein is the property of the government of the United States of America and may be revised or deleted at any time without prior notice.
Dissemination of this information without the expressed written consent of the Public Affairs Office, Tulsa District U.S. Army Corps of Engineers is strictly prohibited.
These data are gathered electronically and, as presented, have not undergone any form of quality control. These data are not guaranteed to be valid or correct.
Go to home page.
Go to station list.
Go to home page.

Upstream stations:

Downstream station:
Previous Day
Next Day
Current Day
    
SHEF ID:       PTAO2     Poteau River at Poteau, OK
STATION TYPE:  
Regulating: Stage =    20.00, Flow =     7385

               PRECIP     STAGE  RIV-FLOW   VOLTAGE  BAT-LOAD
                   in        ft       cfs      volt      volt
              Ccp-Rev   Ccp-Rev   Ccp-Rev   Ccp-Rev   Ccp-Rev
(US/Central)
05/21 00:00      0.00      6.57      1637     12.65     12.57
05/21 01:00      0.00      6.56      1633     12.65     12.57
05/21 02:00      0.00      6.54      1627     12.65     12.49
05/21 03:00      0.00      6.54      1627     12.57     12.49
05/21 04:00      0.00      6.55      1630     12.57     12.49
05/21 05:00      0.00      6.53      1623     12.57     12.49
05/21 06:00      0.00      6.53      1623     12.57     12.49
05/21 07:00      0.00      6.52      1620     12.57     12.49
05/21 08:00      0.00      6.53      1623     12.89     12.65
05/21 09:00      0.00      6.52      1620     13.53     13.29
05/21 10:00      0.00      6.50      1613     13.76     13.21
05/21 11:00      0.14      6.47      1602     12.97     12.97
05/21 12:00      0.44      6.51      1616     13.92     13.13
05/21 13:00      0.07      6.36      1565     13.37     13.21
05/21 14:00      0.02      6.17      1500     13.44     13.29
05/21 15:00      0.01      5.94      1424     13.44     13.21
05/21 16:00      0.00      5.80      1378     13.68     13.76
05/21 17:00      0.00      6.04      1457     13.68     13.21
05/21 18:00      0.00      6.45      1596     13.37     13.29
05/21 19:00      0.00      6.76      1703     13.37     13.21
05/21 20:00      0.00      6.93      1762     13.13     13.05
05/21 21:00      0.00      6.98      1779     12.89     12.81
05/21 22:00      ----      ----      ----      ----      ----
05/21 23:00      ----      ----      ----      ----      ----